Time;durP1;ratioP1;P1;durP2;ratioP2;P2;SDS_P1;SDS_P2;PMS_P1;PMS_P2;Temp;Humidity;BMP_temperature;BMP_pressure;BME280_temperature;BME280_humidity;BME280_pressure;Samples;Min_cycle;Max_cycle;Signal;HPM_P1;HPM_P2
2023/08/31 00:01:05;;;;;;;5.85;3.13;;;12.40;99.90;;;;;;5086290;28;20068;-63
2023/08/31 00:03:32;;;;;;;2.65;2.45;;;12.50;99.90;;;;;;5093821;28;20036;-63
2023/08/31 00:06:02;;;;;;;2.47;2.20;;;12.50;99.90;;;;;;5086240;28;20523;-63
2023/08/31 00:08:28;;;;;;;6.53;1.92;;;12.40;99.90;;;;;;5091264;28;20043;-63
2023/08/31 00:11:00;;;;;;;2.88;1.83;;;12.40;99.90;;;;;;5094382;28;20032;-62
2023/08/31 00:13:27;;;;;;;5.63;2.90;;;12.40;99.90;;;;;;5086212;28;20074;-63
2023/08/31 00:15:59;;;;;;;6.85;3.35;;;12.40;99.90;;;;;;5093786;28;20051;-63
2023/08/31 00:18:27;;;;;;;4.05;3.35;;;12.30;99.90;;;;;;5085681;28;20120;-63
2023/08/31 00:20:53;;;;;;;6.05;3.28;;;12.40;99.90;;;;;;5094591;28;20452;-63
2023/08/31 00:23:20;;;;;;;6.13;3.30;;;12.40;99.90;;;;;;5094212;28;20036;-63
2023/08/31 00:25:47;;;;;;;3.50;3.20;;;12.30;99.90;;;;;;5084102;28;20055;-63
2023/08/31 00:28:18;;;;;;;3.75;3.30;;;12.50;99.90;;;;;;5092391;28;20055;-63
2023/08/31 00:30:46;;;;;;;7.00;3.30;;;12.40;99.90;;;;;;5069827;28;20040;-63
2023/08/31 00:33:13;;;;;;;6.35;3.03;;;12.40;99.90;;;;;;5083983;28;20052;-62
2023/08/31 00:35:46;;;;;;;3.38;3.00;;;12.40;99.90;;;;;;5089738;28;20098;-63
2023/08/31 00:38:13;;;;;;;3.67;3.17;;;12.50;99.90;;;;;;5075600;28;20044;-63
2023/08/31 00:40:45;;;;;;;3.75;3.10;;;12.40;99.90;;;;;;5094129;28;20392;-62
2023/08/31 00:43:15;;;;;;;5.35;2.55;;;12.40;99.90;;;;;;5091456;28;20074;-62
2023/08/31 00:45:44;;;;;;;2.50;1.90;;;12.40;99.90;;;;;;5063989;28;20064;-62
2023/08/31 00:48:14;;;;;;;2.90;1.75;;;12.30;99.90;;;;;;5090862;28;20405;-62
2023/08/31 00:50:41;;;;;;;2.92;2.28;;;12.30;99.90;;;;;;5074614;28;20058;-63
2023/08/31 00:53:08;;;;;;;3.28;2.42;;;12.30;99.90;;;;;;5064301;28;20485;-62
2023/08/31 00:55:35;;;;;;;4.57;2.22;;;12.30;99.90;;;;;;5085413;28;20038;-62
2023/08/31 00:58:02;;;;;;;5.95;2.33;;;12.30;99.90;;;;;;5093317;28;20493;-62
2023/08/31 01:00:46;;;;;;;10.27;2.50;;;12.30;99.90;;;;;;5066157;28;20043;-63
2023/08/31 01:03:24;;;;;;;3.83;2.80;;;12.40;99.90;;;;;;5082966;28;20044;-63
2023/08/31 01:06:31;;;;;;;7.32;2.78;;;12.40;99.90;;;;;;5093503;28;20063;-63
2023/08/31 01:09:08;;;;;;;4.53;2.75;;;12.40;99.90;;;;;;5074240;28;20055;-62
2023/08/31 01:11:56;;;;;;;3.38;2.95;;;12.40;99.90;;;;;;5072746;28;20032;-63
2023/08/31 01:14:26;;;;;;;4.13;3.10;;;12.40;99.90;;;;;;5073284;28;20055;-63
2023/08/31 01:16:56;;;;;;;5.53;3.30;;;12.40;99.90;;;;;;5073762;28;20048;-62
2023/08/31 01:19:51;;;;;;;8.02;3.40;;;12.30;99.90;;;;;;5084500;28;20033;-62
2023/08/31 01:22:37;;;;;;;3.58;3.20;;;12.40;99.90;;;;;;5074783;28;20048;-63
2023/08/31 01:25:05;;;;;;;8.45;3.33;;;12.40;99.90;;;;;;5088865;28;20060;-62
2023/08/31 01:27:32;;;;;;;10.00;3.40;;;12.30;99.90;;;;;;5041740;28;20129;-63
2023/08/31 01:29:59;;;;;;;6.55;3.22;;;12.40;99.90;;;;;;5084549;28;20551;-61
2023/08/31 01:32:26;;;;;;;8.70;2.85;;;12.40;99.90;;;;;;5058263;28;20090;-62
2023/08/31 01:34:54;;;;;;;4.72;3.00;;;12.40;99.90;;;;;;5078017;28;20123;-62
2023/08/31 01:37:57;;;;;;;6.22;2.92;;;12.40;99.90;;;;;;5064389;28;20045;-61
2023/08/31 01:40:46;;;;;;;3.85;2.28;;;12.30;99.90;;;;;;5092086;28;20044;-62
2023/08/31 01:43:14;;;;;;;3.50;2.30;;;12.30;99.90;;;;;;5088174;28;20117;-62
2023/08/31 01:45:42;;;;;;;3.05;1.85;;;12.20;99.90;;;;;;5059175;28;20098;-62
2023/08/31 01:48:13;;;;;;;2.08;1.70;;;12.10;99.90;;;;;;5091907;28;20070;-62
2023/08/31 01:50:40;;;;;;;3.97;1.92;;;12.10;99.90;;;;;;5070654;28;20051;-63
2023/08/31 01:53:06;;;;;;;3.83;2.30;;;12.00;99.90;;;;;;5091782;28;20388;-63
2023/08/31 01:55:33;;;;;;;3.97;1.88;;;12.00;99.90;;;;;;5065836;28;20082;-63
2023/08/31 01:58:00;;;;;;;5.00;1.70;;;11.90;99.90;;;;;;5073909;28;20123;-63
2023/08/31 02:00:28;;;;;;;5.05;1.83;;;11.90;99.90;;;;;;5071414;28;20269;-63
2023/08/31 02:02:56;;;;;;;3.55;1.90;;;11.90;99.90;;;;;;5060576;28;20047;-63
2023/08/31 02:05:22;;;;;;;2.13;1.95;;;11.90;99.90;;;;;;5073283;28;20094;-63
2023/08/31 02:07:52;;;;;;;3.58;1.83;;;11.90;99.90;;;;;;5074016;28;20551;-61
2023/08/31 02:10:19;;;;;;;3.53;2.15;;;11.90;99.90;;;;;;5090121;28;20089;-63
2023/08/31 02:12:46;;;;;;;3.15;1.85;;;11.90;99.90;;;;;;5073340;28;20051;-63
2023/08/31 02:15:13;;;;;;;2.58;2.10;;;11.90;99.90;;;;;;5064829;28;20034;-63
2023/08/31 02:17:39;;;;;;;4.40;2.17;;;11.90;99.90;;;;;;5071343;28;20036;-63
2023/08/31 02:20:08;;;;;;;2.13;1.92;;;11.90;99.90;;;;;;5071303;28;20056;-63
2023/08/31 02:22:35;;;;;;;4.75;2.58;;;11.90;99.90;;;;;;5070245;28;20037;-63
2023/08/31 02:25:02;;;;;;;2.65;2.13;;;11.90;99.90;;;;;;5064627;28;20516;-63
2023/08/31 02:27:29;;;;;;;3.70;2.30;;;11.90;99.90;;;;;;5088435;28;20036;-62
2023/08/31 02:29:56;;;;;;;4.78;2.60;;;11.90;99.90;;;;;;5079031;28;20078;-62
2023/08/31 02:32:23;;;;;;;5.88;1.83;;;11.90;99.90;;;;;;5065309;28;20052;-62
2023/08/31 02:34:50;;;;;;;2.15;1.95;;;11.90;99.90;;;;;;5067590;28;20064;-61
2023/08/31 02:37:17;;;;;;;;;;;11.80;99.90;;;;;;5062833;28;20452;-63
2023/08/31 02:39:43;;;;;;;2.90;2.05;;;11.80;99.90;;;;;;5085181;28;19920;-63
2023/08/31 02:42:10;;;;;;;3.17;2.40;;;11.80;99.90;;;;;;5084138;28;20088;-63
2023/08/31 02:44:37;;;;;;;3.28;2.58;;;11.80;99.90;;;;;;5063670;28;20134;-62
2023/08/31 02:47:04;;;;;;;3.28;2.50;;;11.80;99.90;;;;;;5083396;28;20060;-61
2023/08/31 02:49:31;;;;;;;7.90;2.90;;;11.80;99.90;;;;;;5063097;28;20398;-63
2023/08/31 02:51:57;;;;;;;4.22;2.22;;;11.80;99.90;;;;;;5069534;28;20056;-62
2023/08/31 02:54:24;;;;;;;3.40;2.55;;;11.70;99.90;;;;;;5063621;28;20138;-63
2023/08/31 02:56:51;;;;;;;4.60;2.00;;;11.70;99.90;;;;;;5066427;28;20059;-62
2023/08/31 02:59:18;;;;;;;4.18;2.17;;;11.70;99.90;;;;;;5065166;28;20072;-63
2023/08/31 03:01:46;;;;;;;3.10;2.40;;;11.70;99.90;;;;;;5068180;28;20052;-63
2023/08/31 03:04:13;;;;;;;2.63;2.03;;;11.70;99.90;;;;;;5061598;28;20046;-63
2023/08/31 03:06:40;;;;;;;4.25;2.20;;;11.60;99.90;;;;;;5091014;28;20097;-63
2023/08/31 03:09:07;;;;;;;4.65;2.33;;;11.70;99.90;;;;;;5086489;28;20040;-62
2023/08/31 03:11:34;;;;;;;4.95;2.35;;;11.70;99.90;;;;;;5072796;28;20047;-63
2023/08/31 03:14:01;;;;;;;4.63;2.42;;;11.70;99.90;;;;;;5071958;28;20105;-63
2023/08/31 03:16:28;;;;;;;5.45;2.03;;;11.70;99.90;;;;;;5081554;28;20097;-62
2023/08/31 03:18:55;;;;;;;3.92;2.40;;;11.60;99.90;;;;;;5079665;28;20051;-63
2023/08/31 03:21:22;;;;;;;2.20;2.00;;;11.60;99.90;;;;;;5051782;28;20047;-63
2023/08/31 03:23:49;;;;;;;3.53;1.88;;;11.60;99.90;;;;;;5084847;28;20107;-63
2023/08/31 03:26:16;;;;;;;2.90;1.92;;;11.60;99.90;;;;;;5065186;28;20045;-62
2023/08/31 03:28:43;;;;;;;;;;;11.60;99.90;;;;;;5039982;28;20040;-62
2023/08/31 03:31:10;;;;;;;3.38;2.00;;;11.70;99.90;;;;;;5069771;28;20292;-63
2023/08/31 03:33:37;;;;;;;4.35;2.08;;;11.70;99.90;;;;;;5082454;28;20471;-63
2023/08/31 03:36:04;;;;;;;6.10;1.88;;;11.70;99.90;;;;;;5089394;28;20044;-63
2023/08/31 03:38:37;;;;;;;5.28;1.85;;;11.70;99.90;;;;;;5075208;28;20043;-63
2023/08/31 03:41:04;;;;;;;2.75;2.22;;;11.80;99.90;;;;;;5072827;28;20508;-63
2023/08/31 03:43:31;;;;;;;4.13;2.13;;;11.80;99.90;;;;;;5074124;28;20509;-63
2023/08/31 03:45:59;;;;;;;3.95;2.40;;;11.80;99.90;;;;;;5071670;28;20134;-62
2023/08/31 03:48:26;;;;;;;5.65;3.67;;;11.80;99.90;;;;;;5074852;28;20427;-62
2023/08/31 03:50:54;;;;;;;6.38;3.58;;;11.90;99.90;;;;;;5063932;28;20040;-63
2023/08/31 03:53:22;;;;;;;6.70;2.35;;;11.90;99.90;;;;;;5056661;28;20041;-61
2023/08/31 03:55:53;;;;;;;7.18;3.22;;;11.90;99.90;;;;;;5072169;28;20037;-62
2023/08/31 03:58:19;;;;;;;9.43;3.53;;;11.90;99.90;;;;;;5077411;28;20119;-62
2023/08/31 04:00:50;;;;;;;5.38;3.10;;;12.00;99.90;;;;;;5069660;28;20485;-63
2023/08/31 04:03:18;;;;;;;5.18;3.05;;;12.00;99.90;;;;;;5060240;28;20047;-63
2023/08/31 04:05:46;;;;;;;6.05;2.80;;;12.00;99.90;;;;;;5075891;28;20044;-63
2023/08/31 04:08:13;;;;;;;3.20;2.88;;;12.00;99.90;;;;;;5071185;28;20048;-62
2023/08/31 04:10:40;;;;;;;5.40;2.45;;;11.90;99.90;;;;;;5072611;28;20047;-63
2023/08/31 04:13:07;;;;;;;11.43;3.20;;;11.90;99.90;;;;;;5076144;28;20512;-63
2023/08/31 04:15:34;;;;;;;2.55;2.35;;;11.80;99.90;;;;;;5073506;28;20468;-63
2023/08/31 04:18:01;;;;;;;;;;;11.90;99.90;;;;;;5071535;28;20128;-64
2023/08/31 04:20:28;;;;;;;2.50;2.30;;;11.90;99.90;;;;;;5073987;28;20383;-63
2023/08/31 04:22:55;;;;;;;3.10;2.00;;;11.90;99.90;;;;;;5086322;28;20064;-63
2023/08/31 04:25:21;;;;;;;11.80;2.40;;;11.90;99.90;;;;;;5094497;28;20050;-63
2023/08/31 04:27:48;;;;;;;3.28;2.42;;;11.80;99.90;;;;;;5084873;28;20032;-63
2023/08/31 04:30:15;;;;;;;3.13;2.55;;;11.80;99.90;;;;;;5092478;28;20052;-63
2023/08/31 04:32:44;;;;;;;3.17;2.88;;;11.80;99.90;;;;;;5093293;28;20106;-61
2023/08/31 04:35:11;;;;;;;5.43;2.45;;;11.90;99.90;;;;;;5086845;28;20048;-63
2023/08/31 04:37:37;;;;;;;5.10;3.08;;;11.90;99.90;;;;;;5083706;28;20047;-63
2023/08/31 04:40:05;;;;;;;3.47;2.97;;;11.90;99.90;;;;;;5090054;28;20036;-62
2023/08/31 04:42:31;;;;;;;4.90;3.08;;;11.90;99.90;;;;;;5083326;28;20059;-62
2023/08/31 04:44:58;;;;;;;4.55;2.60;;;11.90;99.90;;;;;;5078007;28;20050;-62
2023/08/31 04:47:25;;;;;;;6.20;2.50;;;11.90;99.90;;;;;;5082121;28;20485;-63
2023/08/31 04:49:52;;;;;;;3.42;2.72;;;11.80;99.90;;;;;;5084648;28;20501;-61
2023/08/31 04:52:18;;;;;;;3.08;2.70;;;11.80;99.90;;;;;;5085309;28;20040;-61
2023/08/31 04:54:45;;;;;;;4.63;2.50;;;11.90;99.90;;;;;;5084631;28;20041;-61
2023/08/31 04:57:12;;;;;;;4.07;2.03;;;12.00;99.90;;;;;;5087294;28;20036;-62
2023/08/31 04:59:39;;;;;;;2.78;2.22;;;11.90;99.90;;;;;;5083918;28;20040;-59
2023/08/31 05:02:05;;;;;;;2.92;2.63;;;11.90;99.90;;;;;;5083851;28;20039;-59
2023/08/31 05:04:32;;;;;;;4.18;2.72;;;11.90;99.90;;;;;;5081067;28;20048;-63
2023/08/31 05:06:59;;;;;;;3.17;2.88;;;12.00;99.90;;;;;;5084312;28;20052;-61
2023/08/31 05:09:26;;;;;;;5.30;2.45;;;12.00;99.90;;;;;;5084367;28;20489;-62
2023/08/31 05:11:54;;;;;;;4.95;3.08;;;12.00;99.90;;;;;;5081836;28;20050;-60
2023/08/31 05:14:21;;;;;;;3.72;3.00;;;12.00;99.90;;;;;;5087946;28;20028;-61
2023/08/31 05:16:47;;;;;;;3.15;2.85;;;12.00;99.90;;;;;;5086320;28;20063;-60
2023/08/31 05:19:15;;;;;;;4.13;2.47;;;12.00;99.90;;;;;;5084161;28;20037;-61
2023/08/31 05:21:41;;;;;;;6.68;3.08;;;12.10;99.90;;;;;;5087247;28;20051;-61
2023/08/31 05:24:08;;;;;;;3.88;2.60;;;12.10;99.90;;;;;;5083683;28;20477;-61
2023/08/31 05:26:36;;;;;;;6.70;2.50;;;12.20;99.90;;;;;;5078236;28;20436;-62
2023/08/31 05:29:05;;;;;;;3.08;2.50;;;12.20;99.90;;;;;;5083298;28;20040;-61
2023/08/31 05:31:32;;;;;;;3.20;2.20;;;12.20;99.90;;;;;;5087229;28;20040;-61
2023/08/31 05:33:59;;;;;;;8.07;5.53;;;12.20;99.90;;;;;;5084521;28;20110;-61
2023/08/31 05:36:26;;;;;;;4.75;2.60;;;12.20;99.90;;;;;;5084490;28;20396;-61
2023/08/31 05:38:52;;;;;;;2.63;2.42;;;12.30;99.90;;;;;;5091778;28;20044;-61
2023/08/31 05:41:19;;;;;;;5.45;2.90;;;12.30;99.90;;;;;;5087203;28;20040;-60
2023/08/31 05:43:46;;;;;;;4.25;2.53;;;12.40;99.90;;;;;;5082830;28;20068;-62
2023/08/31 05:46:13;;;;;;;4.07;3.22;;;12.40;99.90;;;;;;5088460;28;20032;-62
2023/08/31 05:48:40;;;;;;;4.43;2.60;;;12.50;99.90;;;;;;5078994;28;20504;-60
2023/08/31 05:51:07;;;;;;;3.85;2.70;;;12.40;99.90;;;;;;5081910;28;20036;-60
2023/08/31 05:53:34;;;;;;;2.97;2.58;;;12.40;99.90;;;;;;5081292;28;20041;-62
2023/08/31 05:56:04;;;;;;;2.80;2.38;;;12.40;99.90;;;;;;5086721;28;20119;-61
2023/08/31 05:58:33;;;;;;;3.63;2.40;;;12.50;99.90;;;;;;5083584;28;20043;-62
2023/08/31 06:01:00;;;;;;;3.70;2.63;;;12.50;99.90;;;;;;5074652;28;20040;-62
2023/08/31 06:03:28;;;;;;;2.65;2.35;;;12.60;99.90;;;;;;5092333;28;20032;-62
2023/08/31 06:05:59;;;;;;;2.83;2.50;;;12.60;99.90;;;;;;5091028;28;20043;-61
2023/08/31 06:08:25;;;;;;;2.80;2.50;;;12.70;99.90;;;;;;5092115;28;20048;-61
2023/08/31 06:10:52;;;;;;;5.15;2.45;;;12.80;99.90;;;;;;5078864;28;20040;-62
2023/08/31 06:13:19;;;;;;;2.85;2.47;;;12.90;99.90;;;;;;5092355;28;20047;-62
2023/08/31 06:15:46;;;;;;;3.65;2.45;;;12.90;99.90;;;;;;5091251;28;20487;-62
2023/08/31 06:18:13;;;;;;;3.83;2.20;;;12.90;99.90;;;;;;5078706;28;20094;-62
2023/08/31 06:20:40;;;;;;;2.50;2.30;;;12.90;99.90;;;;;;5080323;28;20444;-62
2023/08/31 06:23:07;;;;;;;3.63;2.15;;;12.90;99.90;;;;;;5078349;28;20076;-61
2023/08/31 06:25:34;;;;;;;4.75;2.17;;;12.90;99.90;;;;;;5085401;28;20040;-62
2023/08/31 06:28:00;;;;;;;5.03;3.10;;;13.00;99.90;;;;;;5079947;28;20040;-61
2023/08/31 06:30:27;;;;;;;6.60;3.65;;;13.10;99.90;;;;;;5080994;28;20300;-60
2023/08/31 06:32:54;;;;;;;2.72;2.47;;;13.20;99.90;;;;;;5090106;28;20481;-62
2023/08/31 06:35:21;;;;;;;9.35;4.95;;;13.40;99.90;;;;;;5084795;28;20082;-62
2023/08/31 06:37:50;;;;;;;5.63;2.90;;;13.70;99.90;;;;;;5079777;28;20530;-62
2023/08/31 06:40:17;;;;;;;4.95;2.78;;;13.90;99.90;;;;;;5064175;28;20378;-62
2023/08/31 06:42:44;;;;;;;3.90;2.88;;;14.00;99.90;;;;;;5083039;28;20041;-62
2023/08/31 06:45:10;;;;;;;5.78;3.45;;;14.10;99.90;;;;;;5078055;28;20047;-62
2023/08/31 06:47:37;;;;;;;6.35;2.95;;;14.10;99.90;;;;;;5079116;28;20040;-62
2023/08/31 06:50:05;;;;;;;5.63;3.42;;;14.10;99.90;;;;;;5079533;28;20111;-62
2023/08/31 06:52:31;;;;;;;5.28;3.03;;;14.10;99.90;;;;;;5069365;28;20040;-62
2023/08/31 06:54:58;;;;;;;8.20;3.33;;;14.00;99.90;;;;;;5074160;28;20042;-62
2023/08/31 06:57:27;;;;;;;9.90;3.78;;;14.00;99.90;;;;;;5081527;28;20432;-62
2023/08/31 06:59:54;;;;;;;5.18;3.80;;;14.00;99.90;;;;;;5089903;28;20044;-62
2023/08/31 07:02:24;;;;;;;8.45;3.47;;;14.10;99.90;;;;;;5085016;28;20040;-62
2023/08/31 07:04:52;;;;;;;6.25;3.25;;;14.00;99.90;;;;;;5086167;28;20090;-62
2023/08/31 07:07:19;;;;;;;5.93;3.75;;;14.00;99.90;;;;;;5078708;28;20052;-62
2023/08/31 07:09:48;;;;;;;4.45;3.53;;;14.00;99.90;;;;;;5078983;28;20044;-62
2023/08/31 07:12:15;;;;;;;3.90;3.50;;;14.10;99.90;;;;;;5090509;28;20471;-62
2023/08/31 07:14:42;;;;;;;4.40;3.65;;;14.10;99.90;;;;;;5082271;28;20074;-62
2023/08/31 07:17:09;;;;;;;7.47;3.80;;;14.10;99.90;;;;;;5071317;28;20505;-61
2023/08/31 07:19:37;;;;;;;4.72;3.55;;;14.10;99.90;;;;;;5079451;28;20033;-62
2023/08/31 07:22:06;;;;;;;9.73;4.20;;;14.10;99.90;;;;;;5089978;28;20050;-62
2023/08/31 07:24:34;;;;;;;5.03;3.50;;;14.10;99.90;;;;;;5083656;28;20037;-62
2023/08/31 07:27:04;;;;;;;5.47;3.67;;;14.10;99.90;;;;;;5081141;28;20047;-61
2023/08/31 07:29:31;;;;;;;6.60;3.88;;;14.10;99.90;;;;;;5082114;28;20493;-62
2023/08/31 07:31:58;;;;;;;8.70;3.90;;;14.10;99.90;;;;;;5090748;28;20408;-62
2023/08/31 07:34:25;;;;;;;5.70;3.80;;;14.10;99.90;;;;;;5074842;28;20055;-61
2023/08/31 07:36:52;;;;;;;7.25;3.95;;;14.10;99.90;;;;;;5087150;28;20123;-61
2023/08/31 07:39:18;;;;;;;6.60;3.53;;;14.20;99.90;;;;;;5083027;28;20048;-62
2023/08/31 07:41:45;;;;;;;4.65;3.40;;;14.20;99.90;;;;;;5082296;28;20546;-62
2023/08/31 07:44:12;;;;;;;5.50;4.07;;;14.20;99.90;;;;;;5085039;28;20064;-62
2023/08/31 07:46:39;;;;;;;3.85;3.53;;;14.30;99.90;;;;;;5086186;28;20408;-61
2023/08/31 07:49:06;;;;;;;4.57;3.35;;;14.30;99.90;;;;;;5086377;28;20090;-61
2023/08/31 07:51:33;;;;;;;16.77;4.90;;;14.30;99.90;;;;;;5083180;28;20036;-62
2023/08/31 07:54:01;;;;;;;5.30;3.33;;;14.40;99.90;;;;;;5087866;28;20556;-62
2023/08/31 07:56:27;;;;;;;9.68;3.53;;;14.50;99.90;;;;;;5086701;28;20043;-62
2023/08/31 07:58:54;;;;;;;6.60;3.65;;;14.70;99.90;;;;;;5080240;28;20493;-62
2023/08/31 08:01:21;;;;;;;7.85;4.03;;;14.70;99.90;;;;;;5080031;28;20494;-62
2023/08/31 08:03:48;;;;;;;4.45;3.55;;;14.60;99.90;;;;;;5078907;28;20040;-62
2023/08/31 08:06:15;;;;;;;5.20;3.53;;;14.60;99.90;;;;;;5089509;28;20040;-62
2023/08/31 08:08:41;;;;;;;6.38;4.30;;;14.60;99.90;;;;;;5080161;28;20044;-60
2023/08/31 08:11:08;;;;;;;6.30;3.75;;;14.50;99.90;;;;;;5089900;28;20032;-60
2023/08/31 08:13:35;;;;;;;7.65;3.92;;;14.40;99.90;;;;;;5090165;28;20044;-61
2023/08/31 08:16:02;;;;;;;4.60;3.45;;;14.40;99.90;;;;;;5080743;28;20044;-62
2023/08/31 08:18:30;;;;;;;5.78;3.38;;;14.40;99.90;;;;;;5078903;28;20045;-61
2023/08/31 08:20:57;;;;;;;3.75;3.30;;;14.40;99.90;;;;;;5070642;28;20045;-61
2023/08/31 08:23:24;;;;;;;3.60;3.30;;;14.40;99.90;;;;;;5087279;28;20119;-61
2023/08/31 08:25:51;;;;;;;5.55;3.72;;;14.40;99.90;;;;;;5087158;28;20036;-60
2023/08/31 08:28:17;;;;;;;4.18;3.50;;;14.50;99.90;;;;;;5087415;28;20052;-61
2023/08/31 08:30:44;;;;;;;6.30;3.08;;;14.50;99.90;;;;;;5090027;28;20039;-62
2023/08/31 08:33:11;;;;;;;6.68;3.28;;;14.70;99.90;;;;;;5093282;28;20043;-60
2023/08/31 08:35:38;;;;;;;5.55;3.42;;;14.90;99.90;;;;;;5086331;28;20052;-60
2023/08/31 08:38:05;;;;;;;4.63;3.00;;;15.20;99.90;;;;;;5073383;28;20123;-62
2023/08/31 08:40:33;;;;;;;3.65;2.75;;;15.50;99.90;;;;;;5087985;28;20036;-61
2023/08/31 08:43:06;;;;;;;6.50;2.83;;;15.50;99.90;;;;;;5091748;28;20552;-62
2023/08/31 08:45:42;;;;;;;4.60;3.38;;;15.60;99.90;;;;;;5085140;28;20044;-62
2023/08/31 08:48:09;;;;;;;4.47;3.17;;;15.60;99.90;;;;;;5089201;28;20468;-62
2023/08/31 08:50:37;;;;;;;5.82;3.00;;;15.60;99.90;;;;;;5086593;28;20040;-61
2023/08/31 08:53:05;;;;;;;5.20;2.80;;;15.60;99.90;;;;;;5090768;28;20046;-62
2023/08/31 08:55:33;;;;;;;4.88;2.92;;;15.60;99.90;;;;;;5084933;28;20043;-62
2023/08/31 08:58:00;;;;;;;5.13;2.70;;;15.70;99.90;;;;;;5091013;28;20309;-60
2023/08/31 09:00:30;;;;;;;;;;;15.70;99.90;;;;;;5081997;28;20545;-61
2023/08/31 09:02:58;;;;;;;3.03;2.47;;;15.80;99.90;;;;;;5089813;28;20376;-61
2023/08/31 09:05:25;;;;;;;3.40;3.10;;;15.80;99.90;;;;;;5079202;28;20482;-62
2023/08/31 09:08:07;;;;;;;;;;;15.80;99.90;;;;;;5081788;28;20066;-62
2023/08/31 09:10:41;;;;;;;2.80;2.60;;;15.70;99.90;;;;;;5086228;28;19924;-62
2023/08/31 09:13:10;;;;;;;3.78;2.78;;;15.60;99.90;;;;;;5090424;28;20050;-60
2023/08/31 09:15:49;;;;;;;4.35;2.47;;;15.50;99.90;;;;;;5075508;28;20051;-61
2023/08/31 09:18:28;;;;;;;5.25;2.55;;;15.50;99.90;;;;;;5080814;28;20040;-60
2023/08/31 09:20:56;;;;;;;9.00;3.05;;;15.50;99.90;;;;;;5080926;28;20055;-62
2023/08/31 09:23:24;;;;;;;4.20;2.97;;;15.50;99.90;;;;;;5081500;28;20079;-61
2023/08/31 09:25:54;;;;;;;;;;;15.60;99.90;;;;;;5081412;28;20094;-61
2023/08/31 09:28:23;;;;;;;5.38;2.67;;;15.80;99.90;;;;;;5082829;28;19927;-61
2023/08/31 09:30:52;;;;;;;4.13;2.50;;;16.00;99.90;;;;;;5092929;28;20414;-61
2023/08/31 09:33:20;;;;;;;5.45;2.83;;;16.20;99.90;;;;;;5083233;28;20043;-61
2023/08/31 09:35:52;;;;;;;4.70;2.65;;;16.40;99.90;;;;;;5084880;28;20036;-62
2023/08/31 09:38:19;;;;;;;2.92;2.67;;;16.40;99.90;;;;;;5083694;28;20509;-60
2023/08/31 09:40:46;;;;;;;;;;;16.40;99.90;;;;;;5090107;28;20044;-62
2023/08/31 09:43:20;;;;;;;4.90;2.47;;;16.50;99.90;;;;;;5092332;28;19927;-62
2023/08/31 09:45:48;;;;;;;4.22;2.63;;;16.60;99.90;;;;;;5091319;28;20043;-61
2023/08/31 09:48:16;;;;;;;5.50;2.70;;;16.80;99.90;;;;;;5091780;28;20067;-62
2023/08/31 09:50:45;;;;;;;4.88;2.67;;;17.00;99.90;;;;;;5089916;28;20504;-62
2023/08/31 09:53:15;;;;;;;4.18;3.00;;;17.00;99.90;;;;;;5075069;28;20101;-61
2023/08/31 09:55:43;;;;;;;4.10;2.53;;;17.20;99.90;;;;;;5092170;28;20054;-61
2023/08/31 09:58:11;;;;;;;3.30;2.58;;;17.60;99.90;;;;;;5077106;28;20040;-61
2023/08/31 10:00:43;;;;;;;4.32;2.72;;;17.90;99.90;;;;;;5080484;28;20037;-62
2023/08/31 10:03:14;;;;;;;3.42;2.25;;;18.10;99.90;;;;;;5081047;28;20040;-62
2023/08/31 10:05:44;;;;;;;4.90;2.47;;;18.00;99.90;;;;;;5091371;28;20051;-62
2023/08/31 10:08:15;;;;;;;2.70;2.50;;;17.90;99.90;;;;;;5076382;28;20083;-61
2023/08/31 10:10:43;;;;;;;5.38;2.20;;;17.90;99.90;;;;;;5086617;28;20062;-62
2023/08/31 10:13:11;;;;;;;2.90;2.13;;;17.90;99.90;;;;;;5079667;28;20135;-61
2023/08/31 10:15:39;;;;;;;2.40;2.10;;;17.90;99.90;;;;;;5085992;28;20511;-61
2023/08/31 10:18:07;;;;;;;3.75;2.08;;;18.10;99.90;;;;;;5090099;28;20050;-61
2023/08/31 10:20:34;;;;;;;4.65;2.28;;;18.20;99.90;;;;;;5091873;28;20044;-61
2023/08/31 10:23:05;;;;;;;2.90;2.20;;;18.30;99.90;;;;;;5085011;28;20097;-62
2023/08/31 10:25:59;;;;;;;4.40;1.85;;;18.60;99.90;;;;;;5086760;28;20040;-62
2023/08/31 10:28:30;;;;;;;3.55;2.08;;;18.30;99.90;;;;;;5077154;28;20048;-63
2023/08/31 10:31:04;;;;;;;4.22;2.05;;;18.20;99.90;;;;;;5087895;28;20073;-60
2023/08/31 10:33:43;;;;;;;5.60;2.60;;;18.00;99.90;;;;;;5091369;28;20036;-62
2023/08/31 10:36:13;;;;;;;5.07;2.08;;;17.80;99.90;;;;;;5080845;28;20519;-62
2023/08/31 10:38:44;;;;;;;3.08;2.30;;;17.70;99.90;;;;;;5082692;28;20044;-61
2023/08/31 10:41:10;;;;;;;3.60;2.22;;;17.70;99.90;;;;;;5082328;28;20489;-61
2023/08/31 10:43:50;;;;;;;5.85;2.13;;;17.80;99.90;;;;;;5090245;28;20040;-60
2023/08/31 10:46:26;;;;;;;3.58;2.05;;;17.90;99.90;;;;;;5082464;28;20044;-61
2023/08/31 10:49:14;;;;;;;4.25;2.00;;;18.00;99.90;;;;;;5082333;28;20072;-62
2023/08/31 10:51:43;;;;;;;8.35;2.50;;;18.10;99.90;;;;;;5091447;28;20048;-62
2023/08/31 10:54:24;;;;;;;2.47;2.00;;;18.10;99.90;;;;;;5075336;28;20044;-61
2023/08/31 10:57:00;;;;;;;4.90;2.00;;;18.20;99.90;;;;;;5079449;28;20048;-60
2023/08/31 10:59:50;;;;;;;4.00;2.10;;;18.60;99.90;;;;;;5063174;28;20134;-61
2023/08/31 11:02:31;;;;;;;5.85;1.60;;;18.80;99.90;;;;;;5088266;28;20048;-62
2023/08/31 11:05:10;;;;;;;2.20;1.75;;;18.90;99.90;;;;;;5080086;28;20033;-61
2023/08/31 11:07:40;;;;;;;3.90;2.05;;;18.90;99.90;;;;;;5078936;28;20068;-62
2023/08/31 11:10:11;;;;;;;4.10;1.80;;;19.00;99.90;;;;;;5079657;28;20383;-61
2023/08/31 11:12:39;;;;;;;4.18;2.20;;;19.10;99.90;;;;;;5090022;28;20043;-62
2023/08/31 11:15:07;;;;;;;2.05;1.85;;;19.20;99.90;;;;;;5081197;28;20412;-61
2023/08/31 11:17:34;;;;;;;2.45;1.80;;;19.20;99.90;;;;;;5090589;28;20036;-62
2023/08/31 11:20:05;;;;;;;2.53;1.80;;;19.00;99.90;;;;;;5090781;28;20481;-62
2023/08/31 11:22:33;;;;;;;2.90;1.67;;;19.00;99.90;;;;;;5082597;28;20040;-61
2023/08/31 11:25:00;;;;;;;3.38;2.10;;;18.80;99.90;;;;;;5089684;28;20044;-62
2023/08/31 11:27:26;;;;;;;3.15;1.80;;;18.80;99.90;;;;;;5073366;28;20040;-62
2023/08/31 11:29:53;;;;;;;3.72;1.85;;;18.90;99.90;;;;;;5090442;28;20048;-62
2023/08/31 11:32:23;;;;;;;2.83;1.52;;;19.10;99.90;;;;;;5082605;28;20040;-62
2023/08/31 11:34:50;;;;;;;2.08;1.50;;;19.10;99.90;;;;;;5078976;28;20053;-62
2023/08/31 11:37:19;;;;;;;2.92;1.60;;;19.00;99.90;;;;;;5087063;28;20393;-62
2023/08/31 11:39:53;;;;;;;4.15;1.60;;;18.80;99.90;;;;;;5078573;28;20047;-61
2023/08/31 11:42:21;;;;;;;2.92;1.75;;;18.70;99.90;;;;;;5085895;28;20040;-62
2023/08/31 11:44:51;;;;;;;11.05;2.35;;;18.70;99.90;;;;;;5078755;28;20041;-61
2023/08/31 11:47:18;;;;;;;3.42;1.63;;;18.90;99.90;;;;;;5088678;28;20044;-62
2023/08/31 11:49:46;;;;;;;2.05;1.63;;;19.10;99.90;;;;;;5085263;28;20416;-62
2023/08/31 11:52:13;;;;;;;2.50;1.83;;;19.60;99.90;;;;;;5080029;28;20052;-62
2023/08/31 11:54:42;;;;;;;2.83;1.50;;;19.80;99.90;;;;;;5080930;28;20041;-61
2023/08/31 11:57:10;;;;;;;1.90;1.70;;;19.80;99.90;;;;;;5082502;28;20040;-62
2023/08/31 11:59:38;;;;;;;2.42;1.40;;;19.70;99.90;;;;;;5085790;28;20180;-62
2023/08/31 12:02:07;;;;;;;3.00;1.50;;;19.50;99.90;;;;;;5094472;28;20040;-63
2023/08/31 12:04:45;;;;;;;2.78;1.75;;;19.40;99.90;;;;;;5087685;28;20145;-63
2023/08/31 12:07:17;;;;;;;3.53;1.63;;;19.50;99.90;;;;;;5076670;28;20361;-60
2023/08/31 12:09:45;;;;;;;2.35;1.52;;;19.80;99.90;;;;;;5087099;28;20126;-62
2023/08/31 12:12:17;;;;;;;2.30;1.58;;;20.10;99.90;;;;;;5094319;28;20062;-62
2023/08/31 12:14:44;;;;;;;2.45;1.30;;;20.30;99.90;;;;;;5092339;28;20043;-62
2023/08/31 12:17:11;;;;;;;2.25;1.30;;;20.30;99.90;;;;;;5090297;28;20485;-63
2023/08/31 12:19:40;;;;;;;2.80;1.83;;;20.20;99.90;;;;;;5093565;28;20045;-61
2023/08/31 12:22:12;;;;;;;2.78;1.80;;;20.20;99.90;;;;;;5080408;28;20056;-62
2023/08/31 12:24:41;;;;;;;4.97;2.25;;;20.10;99.90;;;;;;5082194;28;20094;-62
2023/08/31 12:27:08;;;;;;;3.83;1.60;;;20.00;99.90;;;;;;5081767;28;20489;-62
2023/08/31 12:29:35;;;;;;;2.45;1.38;;;19.90;99.90;;;;;;5076257;28;20118;-62
2023/08/31 12:32:03;;;;;;;;;;;19.90;99.90;;;;;;5078502;28;20412;-62
2023/08/31 12:34:32;;;;;;;2.72;1.63;;;20.00;99.90;;;;;;5089782;28;19935;-62
2023/08/31 12:37:01;;;;;;;1.95;1.30;;;20.10;99.90;;;;;;5082204;28;20055;-63
2023/08/31 12:39:28;;;;;;;2.72;1.60;;;20.50;99.90;;;;;;5089594;28;20044;-62
2023/08/31 12:41:55;;;;;;;1.77;1.65;;;20.50;99.90;;;;;;5078818;28;20045;-62
2023/08/31 12:44:38;;;;;;;2.33;1.50;;;20.40;99.90;;;;;;5085272;28;20409;-62
2023/08/31 12:47:05;;;;;;;1.77;1.50;;;20.30;99.90;;;;;;5081623;28;20045;-61
2023/08/31 12:49:32;;;;;;;2.40;1.50;;;20.00;99.90;;;;;;5092569;28;20036;-62
2023/08/31 12:51:58;;;;;;;3.00;1.80;;;19.70;99.90;;;;;;5093203;28;20044;-62
2023/08/31 12:54:25;;;;;;;1.80;1.52;;;19.60;99.90;;;;;;5087721;28;20056;-61
2023/08/31 12:56:52;;;;;;;2.25;1.50;;;19.60;99.90;;;;;;5093220;28;20048;-62